Time;durP1;ratioP1;P1;durP2;ratioP2;P2;SDS_P1;SDS_P2;PMS_P1;PMS_P2;Temp;Humidity;BMP_temperature;BMP_pressure;BME280_temperature;BME280_humidity;BME280_pressure;Samples;Min_cycle;Max_cycle;Signal;HPM_P1;HPM_P2
2021/12/11 00:02:33;;;;;;;49.33;21.20;;;;;;;-141.50;100.00;63355.56;4969099;28;20249;-81
2021/12/11 00:05:01;;;;;;;50.25;21.35;;;;;;;-141.50;100.00;63355.56;4936985;29;20048;-81
2021/12/11 00:07:30;;;;;;;51.15;21.80;;;;;;;-141.50;100.00;63355.56;4935133;29;20056;-80
2021/12/11 00:10:09;;;;;;;55.88;22.70;;;;;;;-141.50;100.00;63355.56;4933376;28;20090;-82
2021/12/11 00:12:54;;;;;;;55.40;21.63;;;;;;;-141.50;100.00;63355.56;4932623;29;20106;-80
2021/12/11 00:15:24;;;;;;;;;;;;;;;-141.50;100.00;63355.56;4934199;29;20079;-79
2021/12/11 00:17:58;;;;;;;46.10;19.20;;;;;;;-141.50;100.00;63355.56;4962619;28;19973;-80
2021/12/11 00:20:32;;;;;;;49.78;19.67;;;;;;;-141.50;100.00;63355.56;4936677;29;20496;-81
2021/12/11 00:22:59;;;;;;;50.45;20.30;;;;;;;-141.50;100.00;63355.56;4938315;29;20126;-81
2021/12/11 00:25:27;;;;;;;46.72;19.20;;;;;;;-141.50;100.00;63355.56;4937004;29;20048;-81
2021/12/11 00:28:05;;;;;;;48.35;19.58;;;;;;;-141.50;100.00;63355.56;4937950;29;20504;-80
2021/12/11 00:30:35;;;;;;;55.15;20.75;;;;;;;-141.50;100.00;63355.56;4937496;29;20056;-81
2021/12/11 00:33:09;;;;;;;50.08;20.42;;;;;;;-141.50;100.00;63355.56;4935177;29;20056;-81
2021/12/11 00:35:40;;;;;;;54.42;20.35;;;;;;;-141.50;100.00;63355.56;4938842;29;20579;-81
2021/12/11 00:38:19;;;;;;;52.67;20.95;;;;;;;-141.50;100.00;63355.56;4938613;29;20055;-80
2021/12/11 00:40:48;;;;;;;54.10;20.73;;;;;;;-141.50;100.00;63355.56;4967908;28;20090;-80
2021/12/11 00:43:21;;;;;;;47.70;21.05;;;;;;;-141.50;100.00;63355.56;4938999;29;20163;-81
2021/12/11 00:45:49;;;;;;;49.25;20.98;;;;;;;-141.50;100.00;63355.56;4948666;28;20052;-82
2021/12/11 00:48:20;;;;;;;54.90;21.35;;;;;;;-141.50;100.00;63355.56;4959887;29;20047;-80
2021/12/11 00:50:54;;;;;;;51.53;20.80;;;;;;;-141.50;100.00;63355.56;4957450;28;20535;-81
2021/12/11 00:53:35;;;;;;;53.75;21.70;;;;;;;-141.50;100.00;63355.56;4940403;29;20832;-82
2021/12/11 00:56:12;;;;;;;48.97;20.05;;;;;;;-141.50;100.00;63355.56;4938616;29;20048;-83
2021/12/11 00:58:41;;;;;;;52.78;21.13;;;;;;;-141.50;100.00;63355.56;4937455;29;20067;-81
2021/12/11 01:01:16;;;;;;;53.38;21.58;;;;;;;-141.50;100.00;63355.56;4938023;29;20063;-80
2021/12/11 01:04:20;;;;;;;51.57;19.97;;;;;;;-141.50;100.00;63355.56;4935901;29;20118;-80
2021/12/11 01:06:50;;;;;;;52.25;20.63;;;;;;;-141.50;100.00;63355.56;4938387;28;20339;-82
2021/12/11 01:09:24;;;;;;;54.45;20.85;;;;;;;-141.50;100.00;63355.56;4937364;29;20059;-80
2021/12/11 01:12:13;;;;;;;51.63;20.42;;;;;;;-141.50;100.00;63355.56;4955705;28;20059;-80
2021/12/11 01:14:53;;;;;;;54.13;19.60;;;;;;;-141.50;100.00;63355.56;4959622;28;20098;-81
2021/12/11 01:17:22;;;;;;;48.92;19.98;;;;;;;-141.50;100.00;63355.56;4957268;28;20078;-78
2021/12/11 01:19:55;;;;;;;48.53;19.45;;;;;;;-141.50;100.00;63355.56;4952535;29;20047;-81
2021/12/11 01:22:34;;;;;;;43.88;18.90;;;;;;;-141.50;100.00;63355.56;4986343;28;20464;-83
2021/12/11 01:25:08;;;;;;;49.90;19.27;;;;;;;-141.50;100.00;63355.56;4986088;28;20047;-81
2021/12/11 01:27:38;;;;;;;48.85;19.38;;;;;;;-141.50;100.00;63355.56;4987366;28;20047;-80
2021/12/11 01:30:08;;;;;;;51.75;20.20;;;;;;;-141.50;100.00;63355.56;4956878;28;20121;-82
2021/12/11 01:32:35;;;;;;;51.38;19.95;;;;;;;-141.50;100.00;63355.56;4955077;28;20050;-81
2021/12/11 01:35:05;;;;;;;49.47;19.90;;;;;;;-141.50;100.00;63355.56;4955248;29;20146;-82
2021/12/11 01:37:32;;;;;;;47.60;19.25;;;;;;;-141.50;100.00;63355.56;4987457;28;20059;-82
2021/12/11 01:40:01;;;;;;;48.47;18.75;;;;;;;-141.50;100.00;63355.56;4952685;29;20047;-82
2021/12/11 01:42:31;;;;;;;54.42;20.30;;;;;;;-141.50;100.00;63355.56;4955279;28;20203;-81
2021/12/11 01:44:59;;;;;;;45.75;19.30;;;;;;;-141.50;100.00;63355.56;4971941;28;20051;-82
2021/12/11 01:47:37;;;;;;;51.13;19.42;;;;;;;-141.50;100.00;63355.56;4973332;28;20097;-81
2021/12/11 01:50:18;;;;;;;45.72;18.95;;;;;;;-141.50;100.00;63355.56;4974204;28;20062;-83
2021/12/11 01:52:57;;;;;;;57.88;19.60;;;;;;;-141.50;100.00;63355.56;4973080;28;20039;-81
2021/12/11 01:55:31;;;;;;;46.67;19.13;;;;;;;-141.50;100.00;63355.56;4955515;28;20500;-80
2021/12/11 01:57:59;;;;;;;33.60;14.20;;;;;;;-141.50;100.00;63355.56;4954593;28;20471;-81
2021/12/11 02:00:40;;;;;;;49.45;20.05;;;;;;;-141.50;100.00;63355.56;4954414;28;20419;-82
2021/12/11 02:03:15;;;;;;;50.90;19.80;;;;;;;-141.50;100.00;63355.56;4949693;28;20182;-82
2021/12/11 02:05:43;;;;;;;55.80;20.00;;;;;;;-141.50;100.00;63355.56;4990988;28;20147;-80
2021/12/11 02:08:18;;;;;;;47.08;18.33;;;;;;;-141.50;100.00;63355.56;4954562;28;20648;-79
2021/12/11 02:10:53;;;;;;;47.90;18.30;;;;;;;-141.50;100.00;63355.56;4952218;29;20169;-77
2021/12/11 02:13:35;;;;;;;52.60;20.08;;;;;;;-141.50;100.00;63355.56;4953858;28;20110;-82
2021/12/11 02:16:02;;;;;;;55.33;19.85;;;;;;;-141.50;100.00;63355.56;4955594;28;20044;-81
2021/12/11 02:18:36;;;;;;;51.72;20.35;;;;;;;-141.50;100.00;63355.56;4983183;28;20094;-82
2021/12/11 02:21:18;;;;;;;47.67;19.45;;;;;;;-141.50;100.00;63355.56;4985451;28;20055;-80
2021/12/11 02:23:57;;;;;;;50.05;19.35;;;;;;;-141.50;100.00;63355.56;4953892;29;20059;-80
2021/12/11 02:26:25;;;;;;;45.22;18.42;;;;;;;-141.50;100.00;63355.56;4955483;29;20666;-81
2021/12/11 02:29:22;;;;;;;53.42;19.63;;;;;;;-141.50;100.00;63355.56;4953897;28;20187;-78
2021/12/11 02:31:58;;;;;;;52.58;19.10;;;;;;;-141.50;100.00;63355.56;4929854;29;20055;-81
2021/12/11 02:34:54;;;;;;;55.88;20.55;;;;;;;-141.50;100.00;63355.56;4951861;28;20055;-80
2021/12/11 02:37:35;;;;;;;54.50;19.20;;;;;;;-141.50;100.00;63355.56;4935003;29;20051;-80
2021/12/11 02:40:37;;;;;;;54.53;19.27;;;;;;;-141.50;100.00;63355.56;4933432;29;20079;-82
2021/12/11 02:43:11;;;;;;;52.13;18.50;;;;;;;-141.50;100.00;63355.56;4937907;29;20103;-81
2021/12/11 02:45:47;;;;;;;46.95;18.45;;;;;;;-141.50;100.00;63355.56;4965239;28;20106;-81
2021/12/11 02:48:27;;;;;;;46.38;18.40;;;;;;;-141.50;100.00;63355.56;4930832;29;20115;-81
2021/12/11 02:51:04;;;;;;;48.92;18.02;;;;;;;-141.50;100.00;63355.56;4964497;28;20083;-78
2021/12/11 02:53:35;;;;;;;48.97;18.15;;;;;;;-141.50;100.00;63355.56;4934958;29;20052;-81
2021/12/11 02:56:12;;;;;;;44.50;17.33;;;;;;;-141.50;100.00;63355.56;4934555;29;20086;-81
2021/12/11 02:58:44;;;;;;;49.65;18.42;;;;;;;-141.50;100.00;63355.56;4965419;28;20060;-81
2021/12/11 03:01:22;;;;;;;54.60;19.58;;;;;;;-141.50;100.00;63355.56;4933918;29;20051;-79
2021/12/11 03:03:57;;;;;;;46.70;16.88;;;;;;;-141.50;100.00;63355.56;4931719;29;20066;-81
2021/12/11 03:06:27;;;;;;;45.95;18.73;;;;;;;-141.50;100.00;63355.56;4935085;29;20143;-80
2021/12/11 03:08:57;;;;;;;47.42;18.15;;;;;;;-141.50;100.00;63355.56;4933873;29;20528;-80
2021/12/11 03:11:29;;;;;;;48.38;18.33;;;;;;;-141.50;100.00;63355.56;4932885;29;20071;-81
2021/12/11 03:13:57;;;;;;;42.80;17.02;;;;;;;-141.50;100.00;63355.56;4933236;29;20710;-81
2021/12/11 03:16:30;;;;;;;46.42;17.85;;;;;;;-141.50;100.00;63355.56;4933658;29;20580;-82
2021/12/11 03:19:00;;;;;;;45.20;16.90;;;;;;;-141.50;100.00;63355.56;4931879;29;20087;-81
2021/12/11 03:21:27;;;;;;;46.08;17.67;;;;;;;-141.50;100.00;63355.56;4933871;29;20115;-82
2021/12/11 03:23:55;;;;;;;43.38;16.05;;;;;;;-141.50;100.00;63355.56;4934138;29;20130;-81
2021/12/11 03:26:23;;;;;;;42.92;16.45;;;;;;;-141.50;100.00;63355.56;4933414;29;20052;-81
2021/12/11 03:28:50;;;;;;;40.63;17.15;;;;;;;-141.50;100.00;63355.56;4932098;29;21006;-81
2021/12/11 03:31:16;;;;;;;48.67;16.77;;;;;;;-141.50;100.00;63355.56;4932944;29;20103;-79
2021/12/11 03:33:47;;;;;;;44.72;17.20;;;;;;;-141.50;100.00;63355.56;4931250;29;20058;-82
2021/12/11 03:36:17;;;;;;;48.08;17.98;;;;;;;-141.50;100.00;63355.56;4934809;29;20472;-82
2021/12/11 03:38:49;;;;;;;47.35;17.33;;;;;;;-141.50;100.00;63355.56;4931799;29;20142;-83
2021/12/11 03:41:17;;;;;;;41.35;16.15;;;;;;;-141.50;100.00;63355.56;4933249;29;20150;-81
2021/12/11 03:43:44;;;;;;;41.42;16.73;;;;;;;-141.50;100.00;63355.56;4935086;29;20086;-83
2021/12/11 03:46:11;;;;;;;41.25;16.83;;;;;;;-141.50;100.00;63355.56;4934981;29;20071;-81
2021/12/11 03:48:44;;;;;;;41.67;16.65;;;;;;;-141.50;100.00;63355.56;4930593;29;20061;-82
2021/12/11 03:51:13;;;;;;;38.17;15.55;;;;;;;-141.50;100.00;63355.56;4936077;29;20485;-81
2021/12/11 03:53:40;;;;;;;41.90;15.80;;;;;;;-141.50;100.00;63355.56;4940963;29;20060;-82
2021/12/11 03:56:12;;;;;;;37.38;14.65;;;;;;;-141.50;100.00;63355.56;4939628;29;20047;-82
2021/12/11 03:58:40;;;;;;;34.15;13.23;;;;;;;-141.50;100.00;63355.56;4941852;29;20107;-81
2021/12/11 04:01:16;;;;;;;39.15;13.25;;;;;;;-141.50;100.00;63355.56;4959716;28;20055;-82
2021/12/11 04:03:47;;;;;;;31.70;13.32;;;;;;;-141.50;100.00;63355.56;4960909;29;20032;-81
2021/12/11 04:06:15;;;;;;;31.98;12.95;;;;;;;-141.50;100.00;63355.56;4942522;29;20055;-81
2021/12/11 04:08:43;;;;;;;40.78;15.75;;;;;;;-141.50;100.00;63355.56;4937732;29;20360;-82
2021/12/11 04:11:16;;;;;;;33.85;13.73;;;;;;;-141.50;100.00;63355.56;4938450;29;20099;-81
2021/12/11 04:13:45;;;;;;;32.88;13.70;;;;;;;-141.50;100.00;63355.56;4937181;29;20051;-81
2021/12/11 04:16:13;;;;;;;36.95;15.15;;;;;;;-141.50;100.00;63355.56;4939631;29;20162;-82
2021/12/11 04:18:40;;;;;;;35.58;14.80;;;;;;;-141.50;100.00;63355.56;4938733;29;20202;-81
2021/12/11 04:21:09;;;;;;;38.22;14.82;;;;;;;-141.50;100.00;63355.56;4939171;29;20052;-81
2021/12/11 04:23:37;;;;;;;33.58;13.68;;;;;;;-141.50;100.00;63355.56;4938431;28;20132;-80
2021/12/11 04:26:04;;;;;;;34.78;14.20;;;;;;;-141.50;100.00;63355.56;4939140;29;20047;-82
2021/12/11 04:28:35;;;;;;;35.78;13.48;;;;;;;-141.50;100.00;63355.56;4938980;29;20052;-78
2021/12/11 04:31:06;;;;;;;36.22;14.43;;;;;;;-141.50;100.00;63355.56;4939162;29;20515;-80
2021/12/11 04:33:38;;;;;;;34.47;14.43;;;;;;;-141.50;100.00;63355.56;4938184;29;20055;-81
2021/12/11 04:36:11;;;;;;;32.67;13.65;;;;;;;-141.50;100.00;63355.56;4939841;29;20039;-78
2021/12/11 04:38:39;;;;;;;35.58;14.30;;;;;;;-141.50;100.00;63355.56;4949069;28;20059;-78
2021/12/11 04:41:08;;;;;;;33.17;13.70;;;;;;;-141.50;100.00;63355.56;4956632;28;20051;-78
2021/12/11 04:43:35;;;;;;;37.47;13.85;;;;;;;-141.50;100.00;63355.56;4957540;28;20059;-82
2021/12/11 04:46:09;;;;;;;36.10;13.32;;;;;;;-141.50;100.00;63355.56;4956091;28;20078;-82
2021/12/11 04:51:54;;;;;;;36.17;13.75;;;;;;;-141.50;100.00;63355.56;4955256;28;20314;-81
2021/12/11 04:54:52;;;;;;;29.38;12.18;;;;;;;-141.50;100.00;63355.56;4958471;28;20078;-82
2021/12/11 04:57:55;;;;;;;32.83;13.75;;;;;;;-141.50;100.00;63355.56;4956951;28;20050;-80
2021/12/11 05:11:11;;;;;;;31.60;13.88;;;;;;;-141.50;100.00;63355.56;4957208;28;20061;-80
2021/12/11 05:13:38;;;;;;;36.10;14.70;;;;;;;-141.50;100.00;63355.56;4955447;28;20059;-82
2021/12/11 05:16:08;;;;;;;33.15;13.90;;;;;;;-141.50;100.00;63355.56;4956388;28;20079;-82
2021/12/11 05:18:38;;;;;;;39.25;15.10;;;;;;;-141.50;100.00;63355.56;4955171;28;20492;-81
2021/12/11 05:21:14;;;;;;;33.65;12.15;;;;;;;-141.50;100.00;63355.56;4956726;28;20150;-80
2021/12/11 05:23:41;;;;;;;32.03;12.82;;;;;;;-141.50;100.00;63355.56;4956722;28;20456;-81
2021/12/11 05:26:08;;;;;;;31.15;12.32;;;;;;;-141.50;100.00;63355.56;4956624;28;20114;-81
2021/12/11 05:28:35;;;;;;;33.95;13.52;;;;;;;-141.50;100.00;63355.56;4955771;28;20134;-82
2021/12/11 05:31:05;;;;;;;32.65;13.02;;;;;;;-141.50;100.00;63355.56;4954475;28;20051;-81
2021/12/11 05:33:33;;;;;;;31.60;13.10;;;;;;;-141.50;100.00;63355.56;4955159;28;20528;-82
2021/12/11 05:36:00;;;;;;;34.72;14.10;;;;;;;-141.50;100.00;63355.56;4956563;28;20051;-81
2021/12/11 05:38:27;;;;;;;30.02;13.43;;;;;;;-141.50;100.00;63355.56;4951099;28;20079;-82
2021/12/11 05:40:59;;;;;;;33.13;12.93;;;;;;;-141.50;100.00;63355.56;4954633;29;20142;-81
2021/12/11 05:43:26;;;;;;;31.58;13.07;;;;;;;-141.50;100.00;63355.56;4957028;29;20122;-81
2021/12/11 05:45:53;;;;;;;31.35;13.00;;;;;;;-141.50;100.00;63355.56;4994200;28;20571;-79
2021/12/11 05:48:20;;;;;;;31.27;13.77;;;;;;;-141.50;100.00;63355.56;4957421;29;20079;-80
2021/12/11 05:50:52;;;;;;;33.67;13.50;;;;;;;-141.50;100.00;63355.56;4960286;28;20645;-81
2021/12/11 05:53:21;;;;;;;30.20;13.93;;;;;;;-141.50;100.00;63355.56;4961986;28;20082;-81
2021/12/11 05:55:50;;;;;;;32.75;13.75;;;;;;;-141.50;100.00;63355.56;4958637;29;20062;-80
2021/12/11 05:58:35;;;;;;;30.50;13.43;;;;;;;-141.50;100.00;63355.56;4955120;28;20503;-80
2021/12/11 06:01:04;;;;;;;31.52;13.18;;;;;;;-141.50;100.00;63355.56;4954823;29;20086;-80
2021/12/11 06:03:31;;;;;;;27.95;12.55;;;;;;;-141.50;100.00;63355.56;4952381;28;20595;-79
2021/12/11 06:05:59;;;;;;;32.90;13.43;;;;;;;-141.50;100.00;63355.56;4954920;29;20188;-80
2021/12/11 06:08:26;;;;;;;33.55;13.10;;;;;;;-141.50;100.00;63355.56;4956124;28;20071;-82
2021/12/11 06:10:52;;;;;;;29.88;12.98;;;;;;;-141.50;100.00;63355.56;4986751;28;20534;-81
2021/12/11 06:13:19;;;;;;;34.22;13.43;;;;;;;-141.50;100.00;63355.56;4956394;28;20102;-80
2021/12/11 06:15:45;;;;;;;29.75;12.75;;;;;;;-141.50;100.00;63355.56;4953875;28;20424;-80
2021/12/11 06:18:17;;;;;;;30.38;12.85;;;;;;;-141.50;100.00;63355.56;4953313;28;20044;-81
2021/12/11 06:20:45;;;;;;;29.40;12.27;;;;;;;-141.50;100.00;63355.56;4955471;28;20085;-80
2021/12/11 06:23:12;;;;;;;27.98;11.13;;;;;;;-141.50;100.00;63355.56;4955928;28;20102;-81
2021/12/11 06:25:39;;;;;;;29.25;11.82;;;;;;;-141.50;100.00;63355.56;4954841;29;20051;-80
2021/12/11 06:28:08;;;;;;;27.00;11.52;;;;;;;-141.50;100.00;63355.56;4957548;28;20113;-81
2021/12/11 06:30:36;;;;;;;29.50;12.10;;;;;;;-141.50;100.00;63355.56;4956381;29;20526;-80
2021/12/11 06:33:03;;;;;;;26.73;11.98;;;;;;;-141.50;100.00;63355.56;4952641;28;20058;-81
2021/12/11 06:35:51;;;;;;;30.17;11.65;;;;;;;-141.50;100.00;63355.56;4955918;28;20487;-81
2021/12/11 06:38:23;;;;;;;25.98;11.60;;;;;;;-141.50;100.00;63355.56;4950996;29;20689;-78
2021/12/11 06:40:50;;;;;;;25.15;10.95;;;;;;;-141.50;100.00;63355.56;4954239;28;20076;-82
2021/12/11 06:43:17;;;;;;;26.00;10.88;;;;;;;-141.50;100.00;63355.56;4955579;28;20051;-80
2021/12/11 06:45:47;;;;;;;22.45;10.40;;;;;;;-141.50;100.00;63355.56;4957303;29;20054;-80
2021/12/11 06:48:16;;;;;;;30.38;11.23;;;;;;;-141.50;100.00;63355.56;4953371;28;20051;-81
2021/12/11 06:50:44;;;;;;;27.27;10.40;;;;;;;-141.50;100.00;63355.56;4955422;28;20051;-80
2021/12/11 06:53:16;;;;;;;29.90;11.57;;;;;;;-141.50;100.00;63355.56;4951296;28;20054;-77
2021/12/11 06:55:43;;;;;;;28.38;11.10;;;;;;;-141.50;100.00;63355.56;4957372;28;20073;-83
2021/12/11 06:58:10;;;;;;;32.53;12.38;;;;;;;-141.50;100.00;63355.56;4957336;28;20098;-81
2021/12/11 07:00:37;;;;;;;25.60;10.93;;;;;;;-141.50;100.00;63355.56;4955974;28;20261;-81
2021/12/11 07:03:04;;;;;;;29.00;10.70;;;;;;;-141.50;100.00;63355.56;4951124;29;20437;-82
2021/12/11 07:05:31;;;;;;;26.77;10.55;;;;;;;-141.50;100.00;63355.56;4953954;28;20071;-81
2021/12/11 07:07:59;;;;;;;31.73;11.75;;;;;;;-141.50;100.00;63355.56;4957934;28;20576;-81
2021/12/11 07:10:25;;;;;;;29.60;12.32;;;;;;;-141.50;100.00;63355.56;4957872;28;20079;-81
2021/12/11 07:12:54;;;;;;;32.08;11.93;;;;;;;-141.50;100.00;63355.56;4969166;28;20042;-81
2021/12/11 07:15:21;;;;;;;28.83;11.35;;;;;;;-141.50;100.00;63355.56;4976935;28;20043;-81
2021/12/11 07:17:47;;;;;;;30.25;11.90;;;;;;;-141.50;100.00;63355.56;4966689;28;20051;-80
2021/12/11 07:20:15;;;;;;;31.40;11.15;;;;;;;-141.50;100.00;63355.56;4953894;29;20121;-81
2021/12/11 07:22:43;;;;;;;29.33;11.45;;;;;;;-141.50;100.00;63355.56;4954907;28;20047;-82
2021/12/11 07:25:15;;;;;;;23.92;10.68;;;;;;;-141.50;100.00;63355.56;4956875;28;20122;-80
2021/12/11 07:27:43;;;;;;;32.90;12.65;;;;;;;-141.50;100.00;63355.56;4954670;28;20047;-81
2021/12/11 07:30:10;;;;;;;32.28;13.20;;;;;;;-141.50;100.00;63355.56;4958755;28;20491;-81
2021/12/11 07:32:37;;;;;;;47.75;19.13;;;;;;;-141.50;100.00;63355.56;4957870;28;20055;-80
2021/12/11 07:35:05;;;;;;;41.85;16.58;;;;;;;-141.50;100.00;63355.56;4968328;28;20051;-79
2021/12/11 07:37:33;;;;;;;35.22;14.32;;;;;;;-141.50;100.00;63355.56;4971213;28;20067;-79
2021/12/11 07:39:59;;;;;;;30.33;12.43;;;;;;;-141.50;100.00;63355.56;4968025;28;20059;-80
2021/12/11 07:42:29;;;;;;;43.55;13.70;;;;;;;-141.50;100.00;63355.56;4961704;28;20270;-80
2021/12/11 07:44:56;;;;;;;36.85;12.85;;;;;;;-141.50;100.00;63355.56;4966607;28;20082;-79
2021/12/11 07:47:23;;;;;;;31.02;12.52;;;;;;;-141.50;100.00;63355.56;4970715;28;20043;-77
2021/12/11 07:49:50;;;;;;;32.13;13.40;;;;;;;-141.50;100.00;63355.56;4963612;28;20055;-79
2021/12/11 07:52:18;;;;;;;37.80;13.93;;;;;;;-141.50;100.00;63355.56;4950746;28;20102;-79
2021/12/11 07:54:45;;;;;;;28.92;13.05;;;;;;;-141.50;100.00;63355.56;4948648;29;20111;-79
2021/12/11 07:57:11;;;;;;;29.70;13.85;;;;;;;-141.50;100.00;63355.56;4962537;28;20086;-79
2021/12/11 07:59:38;;;;;;;35.00;14.40;;;;;;;-141.50;100.00;63355.56;4968722;28;20559;-78
2021/12/11 08:02:05;;;;;;;34.97;14.40;;;;;;;-141.50;100.00;63355.56;4965889;28;20558;-79
2021/12/11 08:04:32;;;;;;;33.90;13.23;;;;;;;-141.50;100.00;63355.56;4953193;28;20067;-79
2021/12/11 08:06:58;;;;;;;32.83;12.57;;;;;;;-141.50;100.00;63355.56;4978761;28;20633;-77
2021/12/11 08:09:25;;;;;;;32.65;12.90;;;;;;;-141.50;100.00;63355.56;4979195;28;20106;-77
2021/12/11 08:11:52;;;;;;;35.25;13.35;;;;;;;-141.50;100.00;63355.56;4953225;28;20590;-78
2021/12/11 08:14:20;;;;;;;37.45;14.40;;;;;;;-141.50;100.00;63355.56;4970692;28;20087;-78
2021/12/11 08:16:49;;;;;;;30.20;14.07;;;;;;;-141.50;100.00;63355.56;4964510;28;20164;-77
2021/12/11 08:19:19;;;;;;;34.47;14.48;;;;;;;-141.50;100.00;63355.56;4998709;28;20089;-79
2021/12/11 08:21:51;;;;;;;35.28;14.45;;;;;;;-141.50;100.00;63355.56;4969188;28;20051;-80
2021/12/11 08:24:19;;;;;;;38.30;15.27;;;;;;;-141.50;100.00;63355.56;4973101;28;20089;-79
2021/12/11 08:26:49;;;;;;;35.85;15.93;;;;;;;-141.50;100.00;63355.56;4970074;28;20094;-79
2021/12/11 08:29:17;;;;;;;46.72;17.52;;;;;;;-141.50;100.00;63355.56;4968873;28;20094;-78
2021/12/11 08:31:49;;;;;;;36.35;15.80;;;;;;;-141.50;100.00;63355.56;4999410;28;20113;-77
2021/12/11 08:34:17;;;;;;;40.88;17.90;;;;;;;-141.50;100.00;63355.56;4981669;28;20142;-78
2021/12/11 08:36:44;;;;;;;39.85;17.40;;;;;;;-141.50;100.00;63355.56;4993883;28;20391;-79
2021/12/11 08:39:13;;;;;;;46.63;18.45;;;;;;;-141.50;100.00;63355.56;4965491;28;20106;-78
2021/12/11 08:41:40;;;;;;;41.92;17.80;;;;;;;-141.50;100.00;63355.56;4953755;28;20058;-78
2021/12/11 08:44:09;;;;;;;39.35;18.45;;;;;;;-141.50;100.00;63355.56;4955437;28;20078;-79
2021/12/11 08:46:39;;;;;;;36.75;17.83;;;;;;;-141.50;100.00;63355.56;4959674;28;20118;-78
2021/12/11 08:49:10;;;;;;;42.92;18.27;;;;;;;-141.50;100.00;63355.56;4960305;28;20051;-77
2021/12/11 08:51:45;;;;;;;42.97;19.40;;;;;;;-141.50;100.00;63355.56;4975420;28;20058;-79
2021/12/11 08:54:12;;;;;;;48.97;21.05;;;;;;;-141.50;100.00;63355.56;4975545;28;20059;-79
2021/12/11 08:56:40;;;;;;;48.65;20.75;;;;;;;-141.50;100.00;63355.56;4969890;28;20055;-77
2021/12/11 08:59:13;;;;;;;62.10;24.55;;;;;;;-141.50;100.00;63355.56;4953902;28;20114;-77
2021/12/11 09:01:45;;;;;;;63.30;24.08;;;;;;;-141.50;100.00;63355.56;4958631;28;20110;-76
2021/12/11 09:04:18;;;;;;;65.82;24.38;;;;;;;-141.50;100.00;63355.56;4946860;28;20051;-77
2021/12/11 09:06:51;;;;;;;60.45;24.90;;;;;;;-141.50;100.00;63355.56;4954795;28;20054;-78
2021/12/11 09:09:36;;;;;;;60.35;25.25;;;;;;;-141.50;100.00;63355.56;4956205;28;20492;-76
2021/12/11 09:12:13;;;;;;;69.45;25.65;;;;;;;-141.50;100.00;63355.56;4950789;29;20055;-77
2021/12/11 09:14:42;;;;;;;73.32;27.30;;;;;;;-141.50;100.00;63355.56;4968688;28;20054;-75
2021/12/11 09:17:38;;;;;;;72.15;29.13;;;;;;;-141.50;100.00;63355.56;4964903;28;20400;-78
2021/12/11 09:20:11;;;;;;;75.75;29.30;;;;;;;-141.50;100.00;63355.56;4952121;28;20085;-76
2021/12/11 09:22:53;;;;;;;75.80;29.35;;;;;;;-141.50;100.00;63355.56;4945752;29;20090;-79
2021/12/11 09:25:30;;;;;;;84.45;30.98;;;;;;;-141.50;100.00;63355.56;4953813;28;20082;-79
2021/12/11 09:28:08;;;;;;;106.53;33.13;;;;;;;-141.50;100.00;63355.56;4952819;28;20051;-77
2021/12/11 09:30:35;;;;;;;117.28;32.65;;;;;;;-141.50;100.00;63355.56;4991266;28;20695;-79
2021/12/11 09:33:12;;;;;;;98.95;34.15;;;;;;;-141.50;100.00;63355.56;4954667;28;20310;-79
2021/12/11 09:35:47;;;;;;;133.70;32.22;;;;;;;-141.50;100.00;63355.56;4967202;28;20050;-77
2021/12/11 09:38:21;;;;;;;131.48;32.75;;;;;;;-141.50;100.00;63355.56;4952073;29;20127;-77
2021/12/11 09:40:51;;;;;;;116.85;32.15;;;;;;;-141.50;100.00;63355.56;4936330;28;20055;-77
2021/12/11 09:43:56;;;;;;;144.88;34.08;;;;;;;-141.50;100.00;63355.56;4972032;28;20055;-78
2021/12/11 09:46:33;;;;;;;127.38;33.20;;;;;;;-141.50;100.00;63355.56;4982144;28;20046;-78
2021/12/11 09:49:04;;;;;;;127.32;32.47;;;;;;;-141.50;100.00;63355.56;4961144;28;20061;-79
2021/12/11 09:51:35;;;;;;;142.25;30.70;;;;;;;-141.50;100.00;63355.56;4982751;28;20105;-80
2021/12/11 09:54:10;;;;;;;123.85;30.98;;;;;;;-141.50;100.00;63355.56;4984748;28;20058;-79
2021/12/11 09:56:48;;;;;;;116.90;31.10;;;;;;;-141.50;100.00;63355.56;4948006;29;20103;-78
2021/12/11 09:59:18;;;;;;;137.40;31.67;;;;;;;-141.50;100.00;63355.56;4945329;29;20083;-80
2021/12/11 10:01:48;;;;;;;132.95;29.98;;;;;;;-141.50;100.00;63355.56;4964973;28;20470;-79
2021/12/11 10:04:22;;;;;;;125.03;31.20;;;;;;;-141.50;100.00;63355.56;4975231;28;20054;-78
2021/12/11 10:07:24;;;;;;;131.32;33.22;;;;;;;-141.50;100.00;63355.56;4976509;28;20050;-80
2021/12/11 10:09:49;;;;;;;170.63;33.30;;;;;;;-141.50;100.00;63355.56;4982363;28;20130;-79
2021/12/11 10:12:19;;;;;;;147.32;34.13;;;;;;;-141.50;100.00;63355.56;4969872;28;20082;-79
2021/12/11 10:14:56;;;;;;;141.80;33.45;;;;;;;-141.50;100.00;63355.56;4980117;28;20066;-80
2021/12/11 10:17:37;;;;;;;134.98;32.83;;;;;;;-141.50;100.00;63355.56;4977167;28;20098;-79
2021/12/11 10:20:12;;;;;;;144.77;32.72;;;;;;;-141.50;100.00;63355.56;4977410;28;20439;-79
2021/12/11 10:22:40;;;;;;;125.15;31.73;;;;;;;-141.50;100.00;63355.56;4985205;28;20078;-78
2021/12/11 10:25:14;;;;;;;115.10;30.67;;;;;;;-141.50;100.00;63355.56;4990187;28;20035;-78
2021/12/11 10:27:42;;;;;;;109.25;29.88;;;;;;;-141.50;100.00;63355.56;4982867;28;20038;-79
2021/12/11 10:30:12;;;;;;;133.85;32.38;;;;;;;-141.50;100.00;63355.56;4991770;28;20109;-77
2021/12/11 10:32:39;;;;;;;108.78;29.33;;;;;;;-141.50;100.00;63355.56;4978175;28;20589;-79
2021/12/11 10:35:15;;;;;;;116.07;31.23;;;;;;;-141.50;100.00;63355.56;4978239;28;20078;-78
2021/12/11 10:37:42;;;;;;;127.45;31.20;;;;;;;-141.50;100.00;63355.56;4973854;28;20046;-79
2021/12/11 10:40:26;;;;;;;100.50;31.35;;;;;;;-141.50;100.00;63355.56;4959490;28;20118;-77
2021/12/11 10:42:58;;;;;;;99.50;31.10;;;;;;;-141.50;100.00;63355.56;4967677;28;20057;-77
2021/12/11 10:45:26;;;;;;;100.90;29.90;;;;;;;-141.50;100.00;63355.56;4959202;28;20047;-80
2021/12/11 10:47:59;;;;;;;92.53;29.67;;;;;;;-141.50;100.00;63355.56;4957323;28;20051;-79
2021/12/11 10:50:34;;;;;;;90.07;28.65;;;;;;;-141.50;100.00;63355.56;4979771;28;20043;-78
2021/12/11 10:53:06;;;;;;;98.78;31.17;;;;;;;-141.50;100.00;63355.56;5009006;28;20173;-78
2021/12/11 10:55:34;;;;;;;98.05;29.23;;;;;;;-141.50;100.00;63355.56;4966834;28;20051;-79
2021/12/11 10:58:07;;;;;;;101.28;30.13;;;;;;;-141.50;100.00;63355.56;4983628;28;20521;-79
2021/12/11 11:00:39;;;;;;;97.45;30.50;;;;;;;-141.50;100.00;63355.56;4977978;28;20051;-79
2021/12/11 11:03:06;;;;;;;100.13;31.15;;;;;;;-141.50;100.00;63355.56;4960744;28;20459;-79
2021/12/11 11:05:35;;;;;;;88.55;30.67;;;;;;;-141.50;100.00;63355.56;4965802;28;20047;-78
2021/12/11 11:08:04;;;;;;;93.25;29.60;;;;;;;-141.50;100.00;63355.56;4968180;28;20059;-80
2021/12/11 11:10:34;;;;;;;92.95;31.13;;;;;;;-141.50;100.00;63355.56;4980461;28;20058;-79
2021/12/11 11:13:06;;;;;;;98.45;31.20;;;;;;;-141.50;100.00;63355.56;4975389;28;20500;-79
2021/12/11 11:15:34;;;;;;;85.47;29.88;;;;;;;-141.50;100.00;63355.56;5009038;28;20534;-77
2021/12/11 11:18:02;;;;;;;102.60;31.58;;;;;;;-141.50;100.00;63355.56;4965867;28;20057;-78
2021/12/11 11:20:33;;;;;;;93.53;32.15;;;;;;;-141.50;100.00;63355.56;4967313;28;20654;-79
2021/12/11 11:23:00;;;;;;;97.03;31.70;;;;;;;-141.50;100.00;63355.56;4974256;28;20059;-78
2021/12/11 11:25:34;;;;;;;101.57;32.25;;;;;;;-141.50;100.00;63355.56;4974631;28;20059;-78
2021/12/11 11:28:06;;;;;;;109.13;33.47;;;;;;;-141.50;100.00;63355.56;4971656;28;20157;-80
2021/12/11 11:30:39;;;;;;;115.10;35.90;;;;;;;-141.50;100.00;63355.56;4970116;28;20047;-79